createdAt,value
2018-10-03T05:25:38.502Z,7.10
2018-10-03T05:28:10.114Z,7.20
2018-10-03T05:30:40.850Z,7.30
2018-10-03T05:33:11.936Z,7.50
2018-10-03T05:35:44.165Z,7.60
2018-10-03T05:38:15.883Z,7.80
2018-10-03T05:40:46.899Z,7.90
2018-10-03T05:43:19.417Z,8.00
2018-10-03T05:45:51.339Z,8.10
2018-10-03T05:48:22.210Z,8.20
2018-10-03T05:50:53.490Z,8.20
2018-10-03T05:53:25.363Z,8.30
2018-10-03T05:55:58.542Z,8.30
2018-10-03T05:58:30.074Z,8.30
2018-10-03T06:01:00.661Z,8.40
2018-10-03T06:03:32.374Z,8.50
2018-10-03T06:06:04.295Z,8.50
2018-10-03T06:08:35.640Z,8.60
2018-10-03T06:11:07.357Z,8.60
2018-10-03T06:13:40.318Z,8.70
2018-10-03T06:16:12.026Z,8.80
2018-10-03T06:18:44.370Z,9.00
2018-10-03T06:21:17.233Z,9.00
2018-10-03T06:23:49.300Z,9.10
2018-10-03T06:26:20.667Z,9.20
2018-10-03T06:28:52.118Z,9.30
2018-10-03T06:31:25.229Z,9.40
2018-10-03T06:33:57.576Z,9.40
2018-10-03T06:36:28.816Z,9.40
2018-10-03T06:38:59.675Z,9.50
2018-10-03T06:41:31.507Z,9.50
2018-10-03T06:44:03.563Z,9.50
2018-10-03T06:46:34.957Z,9.60
2018-10-03T06:49:06.162Z,9.60
2018-10-03T06:51:37.957Z,9.70
2018-10-03T06:54:09.515Z,9.70
2018-10-03T06:56:41.133Z,9.70
2018-10-03T06:59:12.643Z,9.80
2018-10-03T07:01:44.999Z,9.80
2018-10-03T07:04:16.425Z,9.90
2018-10-03T07:06:47.781Z,9.90
2018-10-03T07:09:19.698Z,10.00
2018-10-03T07:11:52.451Z,10.00
2018-10-03T07:14:28.359Z,10.10
2018-10-03T07:17:00.539Z,10.20
2018-10-03T07:19:32.459Z,10.20
2018-10-03T07:22:04.883Z,10.20
2018-10-03T07:24:36.225Z,10.20
2018-10-03T07:27:07.655Z,10.20
2018-10-03T07:29:40.073Z,10.20
2018-10-03T07:32:11.723Z,10.20
2018-10-03T07:34:42.908Z,10.30
2018-10-03T07:37:14.297Z,10.30
2018-10-03T07:39:46.326Z,10.40
2018-10-03T07:42:19.041Z,10.50
2018-10-03T07:44:49.556Z,10.60
2018-10-03T07:47:21.705Z,10.60
2018-10-03T07:49:54.399Z,10.80
2018-10-03T07:52:26.256Z,10.70
2018-10-03T07:54:58.545Z,10.80
2018-10-03T07:57:30.465Z,10.80
2018-10-03T08:00:02.321Z,10.80
2018-10-03T08:02:33.574Z,10.80
2018-10-03T08:05:05.287Z,10.90
2018-10-03T08:07:37.384Z,10.90
2018-10-03T08:10:09.232Z,10.90
2018-10-03T08:12:42.099Z,10.90
2018-10-03T08:15:13.747Z,10.80
2018-10-03T08:17:46.009Z,10.80
2018-10-03T08:20:17.641Z,10.80
2018-10-03T08:22:49.212Z,10.80
2018-10-03T08:25:21.290Z,10.70
2018-10-03T08:27:53.873Z,10.60
2018-10-03T08:30:25.511Z,10.60
2018-10-03T08:32:56.884Z,10.60
2018-10-03T08:35:28.968Z,10.50
2018-10-03T08:38:01.271Z,10.50
2018-10-03T08:40:32.330Z,10.60
2018-10-03T08:43:03.604Z,10.70
2018-10-03T08:45:36.232Z,10.90
2018-10-03T08:48:08.444Z,11.00
2018-10-03T08:50:40.470Z,11.10
2018-10-03T08:53:12.151Z,11.30
2018-10-03T08:55:45.301Z,11.40
2018-10-03T08:58:19.440Z,11.40
2018-10-03T09:00:50.870Z,11.30
2018-10-03T09:03:23.059Z,11.30
2018-10-03T09:05:55.092Z,11.20
2018-10-03T09:08:26.691Z,11.00
2018-10-03T09:10:58.462Z,10.90
2018-10-03T09:13:30.490Z,11.00
2018-10-03T09:16:02.969Z,11.00
2018-10-03T09:18:35.145Z,11.00
2018-10-03T09:21:08.068Z,10.90
2018-10-03T09:23:40.558Z,10.80
2018-10-03T09:26:12.148Z,10.80
2018-10-03T09:28:43.476Z,10.80
2018-10-03T09:31:14.276Z,10.90
2018-10-03T09:33:46.332Z,10.90
2018-10-03T09:36:17.750Z,10.90
2018-10-03T09:38:48.959Z,11.10
2018-10-03T09:41:20.844Z,11.10
2018-10-03T09:43:52.900Z,11.10
2018-10-03T09:46:25.657Z,11.00
2018-10-03T09:48:57.098Z,10.90
2018-10-03T09:51:28.880Z,10.90
2018-10-03T09:54:00.741Z,10.90
2018-10-03T09:56:31.718Z,10.90
2018-10-03T09:59:02.254Z,11.00
2018-10-03T10:01:34.245Z,11.00
2018-10-03T10:04:06.402Z,11.20
2018-10-03T10:06:41.098Z,11.40
2018-10-03T10:09:13.298Z,11.60
2018-10-03T10:11:45.713Z,11.70
2018-10-03T10:14:17.420Z,11.50
2018-10-03T10:16:48.628Z,11.30
2018-10-03T10:19:20.754Z,11.20
2018-10-03T10:21:53.155Z,11.20
2018-10-03T10:24:24.972Z,11.30
2018-10-03T10:26:56.085Z,11.60
2018-10-03T10:29:28.576Z,11.80
2018-10-03T10:32:01.175Z,12.10
2018-10-03T10:34:33.059Z,12.50
2018-10-03T10:37:03.708Z,12.70
2018-10-03T10:39:36.115Z,12.90
2018-10-03T10:42:08.567Z,13.00
2018-10-03T10:44:39.813Z,13.00
2018-10-03T10:47:11.298Z,12.80
2018-10-03T10:49:43.191Z,12.80
2018-10-03T10:52:15.175Z,12.70
2018-10-03T10:54:46.377Z,12.50
2018-10-03T10:57:18.251Z,12.30
2018-10-03T10:59:50.280Z,12.30
2018-10-03T11:02:21.667Z,12.20
2018-10-03T11:04:53.587Z,12.10
2018-10-03T11:07:25.162Z,12.20
2018-10-03T11:09:57.033Z,12.40
2018-10-03T11:12:29.453Z,12.40
2018-10-03T11:15:00.783Z,12.40
2018-10-03T11:17:32.889Z,12.40
2018-10-03T11:20:05.271Z,12.40
2018-10-03T11:22:36.437Z,12.30
2018-10-03T11:25:07.799Z,12.30
2018-10-03T11:27:39.733Z,12.50
2018-10-03T11:30:11.353Z,12.90
2018-10-03T11:32:42.595Z,13.30
2018-10-03T11:35:14.559Z,13.70
2018-10-03T11:37:47.289Z,14.30
2018-10-03T11:40:17.872Z,14.40
2018-10-03T11:42:49.253Z,14.40
2018-10-03T11:45:21.530Z,14.30
2018-10-03T11:47:54.178Z,14.10
2018-10-03T11:50:25.470Z,14.20
2018-10-03T11:52:57.933Z,14.20
2018-10-03T11:55:31.545Z,13.90
2018-10-03T11:58:03.983Z,13.50
2018-10-03T12:00:35.150Z,13.10
2018-10-03T12:03:06.363Z,12.90
2018-10-03T12:05:38.709Z,12.80
2018-10-03T12:08:10.361Z,12.70
2018-10-03T12:10:45.668Z,12.70
2018-10-03T12:13:18.071Z,12.80
2018-10-03T12:15:50.051Z,12.80
2018-10-03T12:18:22.259Z,12.80
2018-10-03T12:20:56.389Z,12.90
2018-10-03T12:23:30.239Z,13.10
2018-10-03T12:26:02.285Z,13.20
2018-10-03T12:28:33.365Z,13.10
2018-10-03T12:31:04.713Z,12.80
2018-10-03T12:33:37.000Z,12.70
2018-10-03T12:36:09.265Z,12.40
2018-10-03T12:38:40.618Z,12.30
2018-10-03T12:41:12.441Z,12.30
2018-10-03T12:43:44.284Z,12.40
2018-10-03T12:46:16.385Z,12.40
2018-10-03T12:48:48.192Z,12.20
2018-10-03T12:51:19.934Z,12.20
2018-10-03T12:53:52.728Z,12.40
2018-10-03T12:56:24.309Z,12.60
2018-10-03T12:58:55.832Z,12.70
2018-10-03T13:01:28.036Z,12.80
2018-10-03T13:04:00.003Z,13.20
2018-10-03T13:06:30.978Z,13.40
2018-10-03T13:09:02.341Z,13.70
2018-10-03T13:11:34.700Z,13.60
2018-10-03T13:14:07.205Z,13.20
2018-10-03T13:16:38.860Z,12.80
2018-10-03T13:19:10.157Z,12.60
2018-10-03T13:21:42.043Z,12.90
2018-10-03T13:24:15.858Z,13.40
2018-10-03T13:26:54.659Z,13.50
2018-10-03T13:29:28.937Z,13.50
2018-10-03T13:32:00.909Z,13.60
2018-10-03T13:34:31.710Z,13.70
2018-10-03T13:37:03.311Z,13.70
2018-10-03T13:39:35.294Z,13.50
2018-10-03T13:42:07.178Z,13.10
2018-10-03T13:44:38.584Z,13.10
2018-10-03T13:47:10.044Z,13.10
2018-10-03T13:49:42.319Z,13.30
2018-10-03T13:52:14.173Z,13.30
2018-10-03T13:54:45.267Z,13.20
2018-10-03T13:57:18.008Z,13.30
2018-10-03T13:59:50.431Z,13.20
2018-10-03T14:02:21.728Z,13.10
2018-10-03T14:04:53.058Z,13.20
2018-10-03T14:07:24.826Z,13.20
2018-10-03T14:09:57.047Z,12.90
2018-10-03T14:12:28.842Z,12.60
2018-10-03T14:15:00.505Z,12.40
2018-10-03T14:17:32.463Z,12.10
2018-10-03T14:20:05.571Z,12.00
2018-10-03T14:22:37.367Z,11.90
2018-10-03T14:25:09.144Z,11.80
2018-10-03T14:27:41.342Z,11.80
2018-10-03T14:30:12.868Z,12.00
2018-10-03T14:32:44.205Z,12.30
2018-10-03T14:35:16.876Z,12.60
2018-10-03T14:37:48.924Z,12.80
2018-10-03T14:40:20.231Z,12.90
2018-10-03T14:42:51.400Z,12.90
2018-10-03T14:45:23.276Z,12.80
2018-10-03T14:47:55.186Z,12.60
2018-10-03T14:50:26.577Z,12.40
2018-10-03T14:52:57.778Z,12.30
2018-10-03T14:55:29.701Z,12.20
2018-10-03T14:58:01.821Z,12.20
2018-10-03T15:00:32.754Z,12.20
2018-10-03T15:03:04.080Z,12.10
2018-10-03T15:05:36.020Z,12.10
2018-10-03T15:08:08.056Z,12.00
2018-10-03T15:10:39.246Z,12.00
2018-10-03T15:13:10.582Z,12.00
2018-10-03T15:15:42.418Z,11.90
2018-10-03T15:18:14.560Z,11.90
2018-10-03T15:20:46.495Z,11.90
2018-10-03T15:23:18.305Z,11.90
2018-10-03T15:25:50.170Z,12.00
2018-10-03T15:28:21.793Z,12.10
2018-10-03T15:30:53.136Z,12.30
2018-10-03T15:33:25.184Z,12.50
2018-10-03T15:35:56.771Z,12.70
2018-10-03T15:38:30.568Z,12.70
2018-10-03T15:41:02.886Z,12.50
2018-10-03T15:43:34.809Z,12.30
2018-10-03T15:46:06.710Z,12.30
2018-10-03T15:48:38.520Z,12.30
2018-10-03T15:51:09.983Z,12.30
2018-10-03T15:53:42.073Z,12.20
2018-10-03T15:56:13.631Z,12.00
2018-10-03T15:58:45.072Z,11.90
2018-10-03T16:01:16.460Z,11.80
2018-10-03T16:03:48.736Z,11.80
2018-10-03T16:06:20.161Z,11.70
2018-10-03T16:08:53.085Z,11.60
2018-10-03T16:11:25.676Z,11.60
2018-10-03T16:13:57.349Z,11.60
2018-10-03T16:16:28.753Z,11.50
2018-10-03T16:19:01.193Z,11.50
2018-10-03T16:21:33.349Z,11.50
2018-10-03T16:24:05.449Z,11.40
2018-10-03T16:26:37.105Z,11.40
2018-10-03T16:29:08.568Z,11.40
2018-10-03T16:31:40.732Z,11.30
2018-10-03T16:34:12.443Z,11.30
2018-10-03T16:36:43.945Z,11.20
2018-10-03T16:39:15.364Z,11.10
2018-10-03T16:41:47.306Z,11.00
2018-10-03T16:44:19.264Z,11.00
2018-10-03T16:46:49.910Z,11.00
2018-10-03T16:49:21.873Z,11.00
2018-10-03T16:51:53.784Z,11.00
2018-10-03T16:54:25.132Z,11.00
2018-10-03T16:56:56.464Z,10.90
2018-10-03T16:59:28.188Z,10.90
2018-10-03T17:02:03.256Z,10.80
2018-10-03T17:04:34.512Z,10.60
2018-10-03T17:07:06.427Z,10.50
2018-10-03T17:09:38.845Z,10.30
2018-10-03T17:12:10.451Z,10.00
2018-10-03T17:14:41.873Z,9.80
2018-10-03T17:17:12.393Z,9.70
2018-10-03T17:19:44.621Z,9.60
2018-10-03T17:22:17.161Z,9.70
2018-10-03T17:24:48.556Z,9.90
2018-10-03T17:27:21.038Z,10.00
2018-10-03T17:29:53.354Z,10.00
2018-10-03T17:32:24.878Z,10.20
2018-10-03T17:34:56.341Z,10.20
2018-10-03T17:37:28.755Z,10.30
2018-10-03T17:40:00.721Z,10.30
2018-10-03T17:42:32.095Z,10.30
2018-10-03T17:45:03.767Z,10.40
2018-10-03T17:47:35.981Z,10.30
2018-10-03T17:50:08.136Z,10.30
2018-10-03T17:52:38.785Z,10.40
2018-10-03T17:55:09.989Z,10.40
2018-10-03T17:57:44.419Z,10.40
2018-10-03T18:00:17.406Z,10.30
2018-10-03T18:02:48.750Z,10.20
2018-10-03T18:05:21.559Z,10.10
2018-10-03T18:07:53.880Z,10.00
2018-10-03T18:10:25.504Z,9.90
2018-10-03T18:12:57.278Z,9.90
2018-10-03T18:15:29.464Z,9.90
2018-10-03T18:18:02.084Z,9.90
2018-10-03T18:20:34.715Z,9.80
2018-10-03T18:23:06.232Z,9.80
2018-10-03T18:25:38.446Z,9.70
2018-10-03T18:28:10.170Z,9.70
2018-10-03T18:30:41.115Z,9.70
2018-10-03T18:33:13.367Z,9.70
2018-10-03T18:35:47.800Z,9.80
2018-10-03T18:38:19.168Z,9.80
2018-10-03T18:40:52.084Z,9.80
2018-10-03T18:43:24.100Z,9.80
2018-10-03T18:45:56.266Z,9.80
2018-10-03T18:48:28.998Z,9.80
2018-10-03T18:51:00.716Z,9.70
2018-10-03T18:53:33.138Z,9.60
2018-10-03T18:56:05.526Z,9.60
2018-10-03T18:58:37.598Z,9.60
2018-10-03T19:01:09.210Z,9.60
2018-10-03T19:03:41.585Z,9.60
2018-10-03T19:06:13.856Z,9.60
2018-10-03T19:08:46.348Z,9.60
2018-10-03T19:11:16.896Z,9.60
2018-10-03T19:13:49.743Z,9.50
2018-10-03T19:16:22.275Z,9.50
2018-10-03T19:18:54.180Z,9.50
2018-10-03T19:21:26.116Z,9.40
2018-10-03T19:23:58.119Z,9.30
2018-10-03T19:26:29.224Z,9.30
2018-10-03T19:29:07.113Z,9.30
2018-10-03T19:31:39.061Z,9.30
2018-10-03T19:34:10.609Z,9.20
2018-10-03T19:36:41.937Z,9.30
2018-10-03T19:39:13.489Z,9.30
2018-10-03T19:41:46.071Z,9.30
2018-10-03T19:44:17.313Z,9.30
2018-10-03T19:46:48.477Z,9.30
2018-10-03T19:49:20.227Z,9.40
2018-10-03T19:51:51.638Z,9.50
2018-10-03T19:54:23.014Z,9.50
2018-10-03T19:56:54.404Z,9.50
2018-10-03T19:59:26.561Z,9.50
2018-10-03T20:01:58.591Z,9.50
2018-10-03T20:04:30.401Z,9.50
2018-10-03T20:07:02.684Z,9.50
2018-10-03T20:09:34.513Z,9.50
2018-10-03T20:12:06.188Z,9.50
2018-10-03T20:14:38.227Z,9.50
2018-10-03T20:17:09.788Z,9.50
2018-10-03T20:19:42.001Z,9.60
2018-10-03T20:22:13.895Z,9.60
2018-10-03T20:24:45.478Z,9.60
2018-10-03T20:27:17.251Z,9.60
2018-10-03T20:29:48.885Z,9.60
2018-10-03T20:32:21.187Z,9.60
2018-10-03T20:34:52.800Z,9.50
2018-10-03T20:37:24.657Z,9.60
2018-10-03T20:39:57.182Z,9.60
2018-10-03T20:42:29.075Z,9.50
2018-10-03T20:45:01.176Z,9.60
2018-10-03T20:47:33.591Z,9.60
2018-10-03T20:50:05.565Z,9.50
2018-10-03T20:52:37.783Z,9.50
2018-10-03T20:55:09.558Z,9.50
2018-10-03T20:57:41.309Z,9.40
2018-10-03T21:00:13.514Z,9.30
2018-10-03T21:02:46.594Z,9.30
2018-10-03T21:05:18.493Z,9.30
2018-10-03T21:07:50.195Z,9.30
2018-10-03T21:10:22.308Z,9.30
2018-10-03T21:12:53.948Z,9.20
2018-10-03T21:15:26.166Z,9.20
2018-10-03T21:18:01.859Z,9.20
2018-10-03T21:20:33.545Z,9.20
2018-10-03T21:23:05.530Z,9.20
2018-10-03T21:25:37.138Z,9.10
2018-10-03T21:28:09.634Z,9.10
2018-10-03T21:30:41.498Z,9.20
2018-10-03T21:33:17.172Z,9.10
2018-10-03T21:35:49.056Z,9.20
2018-10-03T21:38:21.043Z,9.20
2018-10-03T21:40:52.793Z,9.10
2018-10-03T21:43:24.044Z,9.10
2018-10-03T21:45:55.576Z,9.00
2018-10-03T21:48:27.792Z,9.00
2018-10-03T21:50:59.611Z,8.90
2018-10-03T21:53:31.418Z,8.80
2018-10-03T21:56:03.308Z,8.60
2018-10-03T21:58:35.103Z,8.50
2018-10-03T22:01:06.938Z,8.30
2018-10-03T22:03:38.668Z,8.20
2018-10-03T22:06:10.038Z,8.10
2018-10-03T22:08:41.670Z,7.90
2018-10-03T22:11:13.381Z,7.80
2018-10-03T22:13:45.491Z,7.60
2018-10-03T22:16:16.870Z,7.50
2018-10-03T22:18:48.652Z,7.40
2018-10-03T22:21:20.454Z,7.30
2018-10-03T22:23:52.133Z,7.20
2018-10-03T22:26:23.980Z,7.20
2018-10-03T22:28:55.685Z,7.10
2018-10-03T22:31:27.435Z,7.10
2018-10-03T22:33:59.039Z,7.00
2018-10-03T22:36:30.700Z,6.90
2018-10-03T22:39:02.868Z,6.80
2018-10-03T22:41:34.698Z,6.70
2018-10-03T22:44:07.014Z,6.50
2018-10-03T22:46:38.244Z,6.50
2018-10-03T22:49:09.986Z,6.40
2018-10-03T22:51:41.657Z,6.30
2018-10-03T22:54:13.484Z,6.10
2018-10-03T22:56:45.453Z,6.00
2018-10-03T22:59:17.216Z,5.80
2018-10-03T23:01:50.226Z,5.60
2018-10-03T23:04:21.718Z,5.50
2018-10-03T23:06:53.172Z,5.40
2018-10-03T23:09:24.693Z,5.40
2018-10-03T23:11:56.428Z,5.40
2018-10-03T23:14:28.098Z,5.40
2018-10-03T23:16:59.704Z,5.40
2018-10-03T23:19:31.714Z,5.50
2018-10-03T23:22:03.151Z,5.60
2018-10-03T23:24:34.986Z,5.70
2018-10-03T23:27:06.785Z,5.90
2018-10-03T23:29:38.394Z,6.00
2018-10-03T23:32:10.512Z,6.00
2018-10-03T23:34:42.925Z,6.00
2018-10-03T23:37:14.938Z,6.10
2018-10-03T23:39:46.816Z,6.10
2018-10-03T23:42:18.390Z,6.20
2018-10-03T23:44:51.241Z,6.20
2018-10-03T23:47:23.176Z,6.30
2018-10-03T23:49:54.883Z,6.30
2018-10-03T23:52:26.789Z,6.30
2018-10-03T23:54:58.066Z,6.40
2018-10-03T23:57:29.996Z,6.40
